Time;durP1;ratioP1;P1;durP2;ratioP2;P2;SDS_P1;SDS_P2;PMS_P1;PMS_P2;Temp;Humidity;BMP_temperature;BMP_pressure;BME280_temperature;BME280_humidity;BME280_pressure;Samples;Min_cycle;Max_cycle;Signal;HPM_P1;HPM_P2
2022/11/13 00:00:46;;;;;;;29.80;17.50;;;8.00;99.90;;;;;;5084615;28;20506;-94
2022/11/13 00:03:11;;;;;;;28.97;17.23;;;6.50;99.90;;;;;;5066988;28;20035;-95
2022/11/13 00:05:37;;;;;;;30.10;17.77;;;7.00;99.90;;;;;;5101842;28;20339;-96
2022/11/13 00:08:03;;;;;;;27.55;17.02;;;5.50;99.90;;;;;;5085187;28;20118;-96
2022/11/13 00:10:29;;;;;;;30.77;17.20;;;6.50;99.90;;;;;;5103879;28;20046;-96
2022/11/13 00:12:55;;;;;;;31.50;18.70;;;7.60;99.90;;;;;;5087222;28;20051;-96
2022/11/13 00:15:21;;;;;;;29.30;17.60;;;7.30;99.90;;;;;;5088663;28;20463;-96
2022/11/13 00:17:46;;;;;;;29.30;18.73;;;6.50;99.90;;;;;;5106450;28;20039;-96
2022/11/13 00:20:12;;;;;;;31.47;18.30;;;6.60;99.90;;;;;;5088196;28;20046;-96
2022/11/13 00:22:38;;;;;;;34.13;18.63;;;6.90;99.90;;;;;;5104772;28;20035;-96
2022/11/13 00:25:04;;;;;;;25.85;17.15;;;7.50;99.90;;;;;;5105130;28;20376;-96
2022/11/13 00:27:30;;;;;;;28.27;17.17;;;6.60;99.90;;;;;;5106790;28;20043;-96
2022/11/13 00:29:56;;;;;;;26.10;16.98;;;6.50;99.90;;;;;;5105045;28;20022;-96
2022/11/13 00:32:22;;;;;;;27.95;17.20;;;5.60;99.90;;;;;;5108815;28;20461;-96
2022/11/13 00:34:48;;;;;;;30.48;17.77;;;7.60;99.90;;;;;;5088984;28;20126;-96
2022/11/13 00:37:14;;;;;;;31.33;17.08;;;6.60;99.90;;;;;;5104988;28;20104;-96
2022/11/13 00:39:40;;;;;;;29.13;18.27;;;6.10;99.90;;;;;;5104890;28;20043;-96
2022/11/13 00:42:05;;;;;;;27.93;17.63;;;7.00;99.90;;;;;;5105523;28;20122;-95
2022/11/13 00:44:32;;;;;;;29.30;17.17;;;;;;;;;;5105216;28;20288;-95
2022/11/13 00:46:57;;;;;;;28.20;17.58;;;6.60;99.90;;;;;;5108674;28;20047;-96
2022/11/13 00:49:26;;;;;;;27.85;16.98;;;6.60;99.90;;;;;;5109174;28;20079;-96
2022/11/13 00:51:52;;;;;;;27.02;17.00;;;7.30;99.90;;;;;;5110262;28;20039;-96
2022/11/13 00:54:21;;;;;;;28.85;17.42;;;7.60;99.90;;;;;;5107082;28;20087;-96
2022/11/13 00:56:46;;;;;;;27.23;15.98;;;6.30;99.90;;;;;;5105199;28;20096;-96
2022/11/13 00:59:12;;;;;;;28.00;16.17;;;7.70;99.90;;;;;;5103505;28;20406;-96
2022/11/13 01:01:38;;;;;;;28.77;16.90;;;6.60;99.90;;;;;;5102456;28;20043;-95
2022/11/13 01:04:04;;;;;;;26.58;16.35;;;6.60;99.90;;;;;;5120323;28;20040;-96
2022/11/13 01:06:29;;;;;;;26.90;16.20;;;6.60;99.90;;;;;;5106097;28;20100;-96
2022/11/13 01:08:58;;;;;;;27.90;16.58;;;6.70;99.90;;;;;;5122421;28;20032;-96
2022/11/13 01:11:27;;;;;;;27.90;16.48;;;5.80;99.90;;;;;;5122262;28;20126;-96
2022/11/13 01:13:54;;;;;;;27.80;16.20;;;7.40;99.90;;;;;;5105101;28;20116;-95
2022/11/13 01:16:22;;;;;;;27.50;16.80;;;7.70;99.90;;;;;;5104508;28;20549;-96
2022/11/13 01:18:48;;;;;;;27.98;17.77;;;7.10;99.90;;;;;;5104512;28;20051;-96
2022/11/13 01:21:17;;;;;;;26.48;15.40;;;7.40;99.90;;;;;;5101691;28;20039;-96
2022/11/13 01:23:43;;;;;;;28.50;16.77;;;7.80;99.90;;;;;;5102616;28;20035;-96
2022/11/13 01:26:18;;;;;;;29.60;17.40;;;7.70;99.90;;;;;;5102477;28;20070;-96
2022/11/13 01:28:45;;;;;;;30.40;17.20;;;6.70;99.90;;;;;;5102306;28;20048;-96
2022/11/13 01:31:12;;;;;;;;;;;6.70;99.90;;;;;;5119889;28;20491;-95
2022/11/13 01:33:38;;;;;;;27.08;16.90;;;6.80;99.90;;;;;;5105225;28;19915;-96
2022/11/13 01:36:07;;;;;;;28.90;17.27;;;6.70;99.90;;;;;;5103936;28;20100;-96
2022/11/13 01:38:33;;;;;;;29.77;18.45;;;6.80;99.90;;;;;;5105599;28;20398;-96
2022/11/13 01:40:59;;;;;;;27.75;16.63;;;6.80;99.90;;;;;;5103016;28;20475;-96
2022/11/13 01:43:31;;;;;;;27.92;16.90;;;7.50;99.90;;;;;;5103135;28;20039;-96
2022/11/13 01:45:59;;;;;;;26.90;16.38;;;6.80;99.90;;;;;;5125034;28;20047;-96
2022/11/13 01:48:32;;;;;;;31.25;17.08;;;7.70;99.90;;;;;;5107645;28;20044;-96
2022/11/13 01:50:59;;;;;;;34.10;17.75;;;7.10;99.90;;;;;;5113386;28;20039;-96
2022/11/13 01:53:25;;;;;;;33.42;16.60;;;8.20;99.90;;;;;;5092997;28;20035;-96
2022/11/13 01:55:52;;;;;;;28.27;16.38;;;8.00;99.90;;;;;;5107913;28;20487;-96
2022/11/13 01:58:18;;;;;;;24.55;15.90;;;7.20;99.90;;;;;;5090402;28;20489;-96
2022/11/13 02:00:44;;;;;;;24.15;15.05;;;8.50;99.90;;;;;;5109379;28;20044;-96
2022/11/13 02:03:10;;;;;;;28.02;15.40;;;6.80;99.90;;;;;;5088334;28;20396;-96
2022/11/13 02:05:36;;;;;;;26.98;16.10;;;8.00;99.90;;;;;;5095182;28;20058;-96
2022/11/13 02:08:02;;;;;;;24.73;15.10;;;5.90;99.90;;;;;;5110828;28;20019;-96
2022/11/13 02:10:28;;;;;;;24.65;16.10;;;6.90;99.90;;;;;;5112252;28;20100;-96
2022/11/13 02:12:56;;;;;;;30.27;17.30;;;8.20;99.90;;;;;;5111353;28;20039;-96
2022/11/13 02:15:25;;;;;;;27.45;15.57;;;6.90;99.90;;;;;;5105213;28;20104;-96
2022/11/13 02:17:54;;;;;;;27.17;15.77;;;8.00;99.90;;;;;;5102338;28;20047;-95
2022/11/13 02:20:30;;;;;;;26.63;15.80;;;6.90;99.90;;;;;;5106275;28;20501;-96
2022/11/13 02:23:28;;;;;;;26.00;16.02;;;7.00;99.90;;;;;;5110314;28;20016;-96
2022/11/13 02:28:25;;;;;;;23.88;14.65;;;7.00;99.90;;;;;;5011728;28;20446;-96
2022/11/13 02:30:51;;;;;;;22.80;14.90;;;5.90;99.90;;;;;;4990568;28;20034;-96
2022/11/13 02:33:22;;;;;;;23.17;13.85;;;8.50;99.90;;;;;;4996468;28;20057;-96
2022/11/13 02:35:48;;;;;;;24.38;14.75;;;7.00;99.90;;;;;;4992475;28;20434;-96
2022/11/13 02:38:14;;;;;;;26.00;15.20;;;7.00;99.90;;;;;;4994261;28;20101;-96
2022/11/13 02:40:41;;;;;;;23.25;14.60;;;7.20;99.90;;;;;;4995612;28;20054;-96
2022/11/13 02:43:07;;;;;;;22.95;14.20;;;7.80;99.90;;;;;;4992373;28;20065;-96
2022/11/13 02:45:33;;;;;;;23.10;14.32;;;7.10;99.90;;;;;;4996401;28;20050;-96
2022/11/13 02:48:00;;;;;;;23.65;14.02;;;7.00;99.90;;;;;;4987690;28;20050;-96
2022/11/13 02:50:26;;;;;;;23.70;14.65;;;7.00;99.90;;;;;;4993358;28;20041;-96
2022/11/13 02:52:52;;;;;;;22.70;13.27;;;7.00;99.90;;;;;;4984359;28;20082;-96
2022/11/13 02:55:18;;;;;;;21.65;13.88;;;7.00;99.90;;;;;;4983424;28;20042;-96
2022/11/13 02:57:44;;;;;;;25.52;14.52;;;6.90;99.90;;;;;;4984162;28;20073;-96
2022/11/13 03:00:12;;;;;;;21.65;13.60;;;6.90;99.90;;;;;;4987660;28;20133;-96
2022/11/13 03:02:38;;;;;;;21.75;13.70;;;7.00;99.90;;;;;;4985890;28;20109;-96
2022/11/13 03:05:04;;;;;;;24.42;13.82;;;8.10;99.90;;;;;;4984899;28;20022;-96
2022/11/13 03:07:30;;;;;;;20.42;13.30;;;6.90;99.90;;;;;;4983670;28;20039;-96
2022/11/13 03:09:56;;;;;;;21.00;14.13;;;6.90;99.90;;;;;;4983641;28;20045;-96
2022/11/13 03:12:22;;;;;;;24.38;13.98;;;8.30;99.90;;;;;;4982906;28;20045;-95
2022/11/13 03:14:48;;;;;;;21.00;13.65;;;8.10;99.90;;;;;;4984837;28;20042;-96
2022/11/13 03:17:14;;;;;;;25.83;14.55;;;6.90;99.90;;;;;;4983082;28;20148;-96
2022/11/13 03:19:39;;;;;;;24.42;15.10;;;6.80;99.90;;;;;;4983159;28;20514;-95
2022/11/13 03:22:05;;;;;;;28.07;15.17;;;7.90;99.90;;;;;;4966586;28;20450;-96
2022/11/13 03:24:31;;;;;;;25.13;14.63;;;6.90;99.90;;;;;;4982754;28;20042;-96
2022/11/13 03:26:56;;;;;;;29.17;15.80;;;7.90;99.90;;;;;;4982315;28;20804;-96
2022/11/13 03:29:22;;;;;;;24.20;15.70;;;6.80;99.90;;;;;;4949698;28;20042;-96
2022/11/13 03:31:48;;;;;;;26.27;15.80;;;7.60;99.90;;;;;;4965200;28;20290;-96
2022/11/13 03:34:14;;;;;;;23.67;15.97;;;;;;;;;;4950288;28;20296;-96
2022/11/13 03:36:40;;;;;;;23.67;14.57;;;6.80;99.90;;;;;;4982165;28;20778;-96
2022/11/13 03:39:05;;;;;;;23.27;13.90;;;6.80;99.90;;;;;;4983732;28;20046;-96
2022/11/13 03:41:31;;;;;;;24.58;15.10;;;6.70;99.90;;;;;;4981446;28;20042;-96
2022/11/13 03:43:57;;;;;;;23.90;14.77;;;6.70;99.90;;;;;;4981389;28;20046;-96
2022/11/13 03:46:23;;;;;;;21.83;14.15;;;7.30;99.90;;;;;;4969290;28;20038;-96
2022/11/13 03:48:49;;;;;;;21.02;14.32;;;6.80;99.90;;;;;;4965335;28;20042;-96
2022/11/13 03:51:14;;;;;;;25.90;15.13;;;6.70;99.90;;;;;;4984888;28;20077;-96
2022/11/13 03:53:40;;;;;;;22.75;15.02;;;7.20;99.90;;;;;;4948766;28;20025;-96
2022/11/13 03:56:07;;;;;;;22.48;14.43;;;6.70;99.90;;;;;;4981073;28;20106;-96
2022/11/13 03:58:32;;;;;;;22.52;14.25;;;6.70;99.90;;;;;;4979876;28;20442;-96
2022/11/13 04:00:58;;;;;;;26.15;15.05;;;6.70;99.90;;;;;;4965845;28;20075;-96
2022/11/13 04:03:24;;;;;;;22.60;14.85;;;8.40;99.90;;;;;;4980159;28;20042;-96
2022/11/13 04:05:50;;;;;;;26.75;15.07;;;6.70;99.90;;;;;;4983902;28;20038;-96
2022/11/13 04:08:16;;;;;;;21.63;13.55;;;6.70;99.90;;;;;;4982734;28;20034;-96
2022/11/13 04:10:43;;;;;;;25.58;14.00;;;7.60;99.90;;;;;;4983413;28;20580;-96
2022/11/13 04:13:09;;;;;;;27.92;15.52;;;8.20;99.90;;;;;;4983404;28;20123;-96
2022/11/13 04:15:35;;;;;;;24.40;14.57;;;7.80;99.90;;;;;;4967248;28;20046;-96
2022/11/13 04:18:01;;;;;;;22.27;15.18;;;7.50;99.90;;;;;;4982033;28;20050;-96
2022/11/13 04:20:27;;;;;;;22.90;14.40;;;7.70;99.90;;;;;;4981490;28;20401;-96
2022/11/13 04:22:54;;;;;;;23.25;14.23;;;6.70;99.90;;;;;;4965457;28;20360;-96
2022/11/13 04:25:20;;;;;;;21.75;14.07;;;6.60;99.90;;;;;;4982176;28;20034;-96
2022/11/13 04:27:47;;;;;;;23.40;15.00;;;6.60;99.90;;;;;;4981777;28;20137;-96
2022/11/13 04:30:13;;;;;;;24.45;14.85;;;6.70;99.90;;;;;;4965497;28;20494;-96
2022/11/13 04:32:39;;;;;;;22.50;14.45;;;6.60;99.90;;;;;;4966374;28;20049;-96
2022/11/13 04:35:06;;;;;;;25.30;15.20;;;6.70;99.90;;;;;;4985145;28;20054;-96
2022/11/13 04:37:32;;;;;;;20.63;14.02;;;6.60;99.90;;;;;;4982339;28;20050;-95
2022/11/13 04:39:58;;;;;;;25.02;15.25;;;7.20;99.90;;;;;;4964591;28;20068;-96
2022/11/13 04:45:08;;;;;;;23.95;14.65;;;7.70;99.90;;;;;;4996778;28;20097;-96
2022/11/13 04:47:34;;;;;;;20.80;13.73;;;6.60;99.90;;;;;;4982021;28;20037;-96
2022/11/13 04:50:00;;;;;;;25.25;14.48;;;6.50;99.90;;;;;;4982662;28;20046;-96
2022/11/13 04:52:27;;;;;;;22.73;15.13;;;7.70;99.90;;;;;;4983405;28;20042;-95
2022/11/13 04:54:53;;;;;;;24.05;14.52;;;6.50;99.90;;;;;;4981489;28;20042;-96
2022/11/13 04:57:19;;;;;;;;;;;6.60;99.90;;;;;;4985657;28;20108;-96
2022/11/13 04:59:45;;;;;;;26.77;14.95;;;6.60;99.90;;;;;;4984792;28;19918;-96
2022/11/13 05:02:14;;;;;;;25.43;14.27;;;6.50;99.90;;;;;;4952605;28;20042;-95
2022/11/13 05:04:39;;;;;;;24.85;14.27;;;6.50;99.90;;;;;;4985159;28;20102;-96
2022/11/13 05:07:05;;;;;;;24.43;14.00;;;7.20;99.90;;;;;;5000406;28;20049;-96
2022/11/13 05:09:31;;;;;;;23.73;14.33;;;6.50;99.90;;;;;;4984699;28;20289;-95
2022/11/13 05:11:57;;;;;;;21.25;14.75;;;6.60;99.90;;;;;;4984499;28;20038;-95
2022/11/13 05:14:22;;;;;;;23.67;14.70;;;8.00;99.90;;;;;;4968968;28;20045;-96
2022/11/13 05:16:49;;;;;;;21.40;13.57;;;7.70;99.90;;;;;;4954219;28;20497;-96
2022/11/13 05:19:15;;;;;;;21.27;13.38;;;6.60;99.90;;;;;;4984612;28;20494;-96
2022/11/13 05:21:41;;;;;;;22.40;14.07;;;6.50;99.90;;;;;;4968195;28;20066;-96
2022/11/13 05:24:10;;;;;;;22.67;13.85;;;6.50;99.90;;;;;;4968246;28;20506;-94
2022/11/13 05:26:37;;;;;;;23.95;14.10;;;7.50;99.90;;;;;;4985616;28;20054;-95
2022/11/13 05:29:03;;;;;;;22.30;13.73;;;6.50;99.90;;;;;;4985969;28;20161;-96
2022/11/13 05:31:29;;;;;;;21.10;13.95;;;6.50;99.90;;;;;;4971002;28;20090;-95
2022/11/13 05:33:55;;;;;;;20.63;12.80;;;7.60;99.90;;;;;;4987435;28;20081;-95
2022/11/13 05:36:21;;;;;;;24.27;13.60;;;6.50;99.90;;;;;;4969272;28;20773;-96
2022/11/13 05:38:47;;;;;;;21.23;13.18;;;6.40;99.90;;;;;;4989445;28;20104;-96
2022/11/13 05:41:15;;;;;;;21.23;13.73;;;6.40;99.90;;;;;;4995848;28;20105;-95
2022/11/13 05:43:42;;;;;;;23.50;13.88;;;7.40;99.90;;;;;;4999483;28;20046;-95
2022/11/13 05:46:09;;;;;;;20.33;12.95;;;7.90;99.90;;;;;;4997781;28;20034;-95
2022/11/13 05:48:35;;;;;;;19.52;12.45;;;6.50;99.90;;;;;;4990861;28;20034;-96
2022/11/13 05:51:05;;;;;;;;;;;6.50;99.90;;;;;;4990564;28;20070;-96
2022/11/13 05:53:32;;;;;;;23.15;13.77;;;6.50;99.90;;;;;;4983473;28;19925;-96
2022/11/13 05:56:26;;;;;;;18.73;12.13;;;7.40;99.90;;;;;;5000759;28;20085;-96
2022/11/13 05:58:53;;;;;;;21.73;13.23;;;6.50;99.90;;;;;;4981247;28;20097;-96
2022/11/13 06:01:22;;;;;;;19.38;12.13;;;7.10;99.90;;;;;;4984698;28;20042;-96
2022/11/13 06:03:49;;;;;;;21.42;13.00;;;6.40;99.90;;;;;;4983478;28;20082;-96
2022/11/13 06:06:17;;;;;;;19.30;12.85;;;6.50;99.90;;;;;;4984505;28;20034;-96
2022/11/13 06:08:44;;;;;;;18.55;12.73;;;6.30;99.90;;;;;;4984307;28;20045;-96
2022/11/13 06:11:12;;;;;;;21.65;13.00;;;6.20;99.90;;;;;;4953182;28;20042;-96
2022/11/13 06:13:38;;;;;;;22.92;13.57;;;7.00;99.90;;;;;;4983461;28;20111;-94
2022/11/13 06:16:16;;;;;;;20.60;13.32;;;6.10;99.90;;;;;;4967158;28;20510;-95
2022/11/13 06:18:43;;;;;;;23.05;14.50;;;6.10;99.90;;;;;;4982917;28;20078;-95
2022/11/13 06:21:16;;;;;;;21.30;13.48;;;6.30;99.90;;;;;;4982591;28;20501;-96
2022/11/13 06:23:42;;;;;;;22.67;13.85;;;5.10;99.90;;;;;;5003009;28;20042;-96
2022/11/13 06:26:11;;;;;;;22.50;14.15;;;6.00;99.90;;;;;;4984810;28;20046;-96
2022/11/13 06:28:37;;;;;;;19.63;13.57;;;5.90;99.90;;;;;;4980764;28;20054;-84
2022/11/13 06:31:09;;;;;;;20.88;13.60;;;7.30;99.90;;;;;;4949036;28;20093;-84
2022/11/13 06:33:35;;;;;;;25.00;15.20;;;5.90;99.90;;;;;;4968776;28;20026;-84
2022/11/13 06:36:05;;;;;;;24.50;14.05;;;6.30;99.90;;;;;;4953149;28;20053;-83
2022/11/13 06:38:32;;;;;;;21.98;14.00;;;6.30;99.90;;;;;;4968902;28;20038;-84
2022/11/13 06:40:58;;;;;;;21.33;13.30;;;5.80;99.90;;;;;;4955273;28;20062;-84
2022/11/13 06:43:24;;;;;;;22.77;13.40;;;5.70;99.90;;;;;;4959415;28;20034;-84
2022/11/13 06:45:50;;;;;;;21.80;13.00;;;7.30;99.90;;;;;;4965945;28;20529;-84
2022/11/13 06:48:16;;;;;;;21.13;12.80;;;5.70;99.90;;;;;;4966194;28;20039;-84
2022/11/13 06:50:42;;;;;;;21.00;13.17;;;5.70;99.90;;;;;;4950193;28;20593;-84
2022/11/13 06:53:07;;;;;;;23.10;13.45;;;5.70;99.90;;;;;;4940565;28;20305;-84
2022/11/13 06:55:33;;;;;;;21.83;13.43;;;7.00;99.90;;;;;;4991582;28;20125;-84
2022/11/13 06:57:59;;;;;;;19.73;13.10;;;5.60;99.90;;;;;;4966452;28;20049;-85
2022/11/13 07:00:24;;;;;;;20.70;13.13;;;5.80;99.90;;;;;;4943506;28;20126;-84
2022/11/13 07:02:50;;;;;;;23.15;13.52;;;5.70;99.90;;;;;;4948008;28;21086;-85
2022/11/13 07:05:16;;;;;;;24.38;13.43;;;5.50;99.90;;;;;;4969130;28;20070;-84
2022/11/13 07:07:42;;;;;;;22.65;14.07;;;5.50;99.90;;;;;;4943570;28;20454;-84
2022/11/13 07:10:08;;;;;;;21.95;13.25;;;5.50;99.90;;;;;;4976361;28;20391;-84
2022/11/13 07:12:34;;;;;;;20.75;13.13;;;5.50;99.90;;;;;;4991927;28;20042;-85
2022/11/13 07:15:00;;;;;;;18.45;12.77;;;5.60;99.90;;;;;;4959530;28;20096;-84
2022/11/13 07:17:27;;;;;;;20.20;13.50;;;5.90;99.90;;;;;;4959572;28;20347;-83
2022/11/13 07:19:53;;;;;;;20.25;13.45;;;5.50;99.90;;;;;;4970157;28;20038;-83
2022/11/13 07:22:19;;;;;;;26.40;13.70;;;5.50;99.90;;;;;;4959827;28;20092;-84
2022/11/13 07:24:46;;;;;;;23.80;14.63;;;5.50;99.90;;;;;;4968549;28;20039;-84
2022/11/13 07:27:12;;;;;;;23.25;14.77;;;5.50;99.90;;;;;;4984761;28;20054;-84
2022/11/13 07:29:38;;;;;;;24.25;15.07;;;5.50;99.90;;;;;;4949726;28;20204;-84
2022/11/13 07:32:04;;;;;;;25.53;15.03;;;5.60;99.90;;;;;;4954635;28;20744;-84
2022/11/13 07:34:30;;;;;;;26.42;14.70;;;5.60;99.90;;;;;;4970330;28;20117;-84
2022/11/13 07:36:55;;;;;;;23.67;13.73;;;5.60;99.90;;;;;;4952028;28;20144;-78
2022/11/13 07:39:21;;;;;;;25.40;14.37;;;5.60;99.90;;;;;;4949415;28;20185;-79
2022/11/13 07:41:47;;;;;;;23.02;13.63;;;5.70;99.90;;;;;;4967650;28;20097;-78
2022/11/13 07:44:13;;;;;;;22.05;14.65;;;6.50;99.90;;;;;;4983656;28;20042;-78
2022/11/13 07:46:38;;;;;;;22.87;13.13;;;5.70;99.90;;;;;;4969981;28;20031;-77
2022/11/13 07:49:04;;;;;;;20.73;13.80;;;5.70;99.90;;;;;;4967950;28;20328;-78
2022/11/13 07:51:30;;;;;;;22.92;13.05;;;5.80;99.90;;;;;;4981682;28;20043;-77
2022/11/13 07:53:56;;;;;;;19.55;12.85;;;7.20;99.90;;;;;;4967028;28;20088;-77
2022/11/13 07:56:24;;;;;;;19.00;11.93;;;6.00;99.90;;;;;;4976194;28;20126;-76
2022/11/13 07:58:49;;;;;;;21.58;13.07;;;6.70;99.90;;;;;;4976269;28;20039;-77
2022/11/13 08:01:15;;;;;;;19.40;13.75;;;6.10;99.90;;;;;;4974363;28;20046;-77
2022/11/13 08:03:41;;;;;;;22.75;12.60;;;6.30;99.90;;;;;;4967118;28;20043;-77
2022/11/13 08:06:07;;;;;;;17.70;11.57;;;6.70;99.90;;;;;;4974378;28;20047;-77
2022/11/13 08:08:34;;;;;;;15.30;10.40;;;6.90;99.90;;;;;;4980551;28;20039;-77
2022/11/13 08:11:07;;;;;;;15.32;10.10;;;7.20;99.90;;;;;;4962143;28;20049;-77
2022/11/13 08:13:34;;;;;;;16.23;9.93;;;7.60;99.90;;;;;;4988663;28;20030;-77
2022/11/13 08:16:01;;;;;;;14.10;9.57;;;7.90;99.90;;;;;;4988908;28;20058;-77
2022/11/13 08:18:30;;;;;;;11.70;8.98;;;8.30;99.90;;;;;;4972082;28;20038;-82
2022/11/13 08:20:56;;;;;;;12.82;8.30;;;8.90;99.90;;;;;;4969175;28;20042;-80
2022/11/13 08:23:22;;;;;;;11.97;8.67;;;9.50;99.90;;;;;;4964844;28;20039;-80
2022/11/13 08:25:48;;;;;;;11.43;8.25;;;10.10;99.90;;;;;;4953337;28;20293;-79
2022/11/13 08:28:14;;;;;;;13.00;7.82;;;10.40;99.90;;;;;;4990347;28;20046;-79
2022/11/13 08:30:46;;;;;;;10.77;8.00;;;10.70;99.90;;;;;;4970612;28;20046;-80
2022/11/13 08:33:12;;;;;;;10.48;7.85;;;11.10;99.90;;;;;;4967307;28;20073;-80
2022/11/13 08:35:38;;;;;;;11.35;8.00;;;11.40;99.90;;;;;;4984475;28;20035;-80
2022/11/13 08:38:06;;;;;;;10.18;7.38;;;11.90;99.90;;;;;;4965866;28;20171;-80
2022/11/13 08:40:32;;;;;;;8.63;7.25;;;12.10;99.90;;;;;;4969565;28;20054;-80
2022/11/13 08:43:03;;;;;;;10.48;7.28;;;12.40;99.90;;;;;;4953188;28;20039;-80
2022/11/13 08:45:29;;;;;;;9.32;7.50;;;12.70;99.90;;;;;;4968727;28;20558;-80
2022/11/13 08:48:00;;;;;;;10.30;7.68;;;12.80;99.90;;;;;;4967825;28;20031;-80
2022/11/13 08:50:27;;;;;;;9.52;7.40;;;13.10;99.90;;;;;;4993919;28;20534;-80
2022/11/13 08:52:57;;;;;;;9.88;7.47;;;13.70;99.90;;;;;;4988711;28;20093;-79
2022/11/13 08:55:23;;;;;;;10.02;6.95;;;13.90;99.90;;;;;;4986519;28;20070;-80
2022/11/13 08:57:49;;;;;;;10.27;7.50;;;14.10;99.90;;;;;;4993548;28;20379;-80
2022/11/13 09:00:15;;;;;;;;;;;14.40;99.90;;;;;;4994031;28;20038;-80
2022/11/13 09:02:41;;;;;;;8.10;7.05;;;15.00;99.90;;;;;;4954249;28;19918;-78
2022/11/13 09:05:07;;;;;;;7.88;6.95;;;15.30;99.90;;;;;;4949857;28;20078;-78
2022/11/13 09:07:33;;;;;;;9.35;6.85;;;15.50;99.90;;;;;;4965176;28;20043;-78
2022/11/13 09:09:58;;;;;;;8.77;7.25;;;15.60;99.90;;;;;;4968662;28;20061;-78
2022/11/13 09:12:24;;;;;;;8.10;6.80;;;16.00;99.90;;;;;;4965326;28;20091;-78
2022/11/13 09:14:50;;;;;;;7.53;6.57;;;15.80;99.90;;;;;;4953954;28;20042;-78
2022/11/13 09:17:16;;;;;;;8.50;6.95;;;16.00;99.90;;;;;;4969991;28;20065;-78
2022/11/13 09:19:42;;;;;;;8.02;6.78;;;16.40;99.90;;;;;;4985962;28;20034;-78
2022/11/13 09:22:08;;;;;;;8.68;6.78;;;16.40;99.90;;;;;;4965387;28;20461;-78
2022/11/13 09:24:33;;;;;;;8.73;7.07;;;16.50;99.90;;;;;;4968007;28;20034;-78
2022/11/13 09:26:59;;;;;;;8.13;7.10;;;16.70;99.90;;;;;;4972122;28;20145;-78
2022/11/13 09:29:27;;;;;;;8.07;6.72;;;17.00;99.90;;;;;;4985871;28;20053;-78
2022/11/13 09:31:55;;;;;;;7.68;6.68;;;17.00;99.90;;;;;;4967580;28;20046;-78
2022/11/13 09:34:21;;;;;;;8.25;6.93;;;16.90;99.90;;;;;;4965156;28;20073;-78
2022/11/13 09:36:47;;;;;;;8.30;6.80;;;16.70;99.90;;;;;;4953817;28;20104;-79
2022/11/13 09:39:13;;;;;;;8.88;6.80;;;16.30;99.90;;;;;;4969700;28;20038;-78
2022/11/13 09:41:47;;;;;;;7.28;6.57;;;16.00;99.90;;;;;;4966709;28;20042;-79
2022/11/13 09:44:40;;;;;;;7.32;6.60;;;16.30;99.90;;;;;;4967403;28;20039;-79
2022/11/13 09:47:26;;;;;;;7.72;6.85;;;16.90;99.90;;;;;;4985933;28;20529;-78
2022/11/13 09:50:24;;;;;;;7.17;6.47;;;17.30;99.90;;;;;;4984913;28;20057;-77
2022/11/13 09:52:50;;;;;;;;;;;17.70;99.90;;;;;;4969417;28;20069;-79
2022/11/13 09:55:20;;;;;;;7.50;5.88;;;18.20;99.90;;;;;;4976867;28;19924;-78
2022/11/13 09:58:23;;;;;;;9.15;5.75;;;18.90;99.90;;;;;;4986140;28;20399;-78
2022/11/13 10:00:49;;;;;;;8.00;6.47;;;19.20;99.90;;;;;;4983263;28;20046;-78
2022/11/13 10:03:32;;;;;;;7.93;5.88;;;19.40;99.90;;;;;;4960005;28;20031;-79
2022/11/13 10:06:12;;;;;;;6.85;5.78;;;20.00;99.90;;;;;;4986852;28;20120;-79
2022/11/13 10:08:57;;;;;;;7.07;5.70;;;20.10;99.90;;;;;;4971670;28;20035;-79
2022/11/13 10:11:47;;;;;;;6.65;5.88;;;20.30;99.90;;;;;;4984891;28;20045;-79
2022/11/13 10:14:45;;;;;;;6.65;5.95;;;20.50;99.90;;;;;;4974573;28;20125;-79
2022/11/13 10:17:25;;;;;;;5.93;5.30;;;20.30;99.90;;;;;;4975065;28;20042;-79
2022/11/13 10:20:01;;;;;;;7.63;6.32;;;20.40;99.90;;;;;;4986743;28;20150;-79
2022/11/13 10:22:32;;;;;;;6.32;5.72;;;19.90;99.90;;;;;;4985836;28;20113;-79
2022/11/13 10:25:12;;;;;;;6.93;6.22;;;20.10;99.90;;;;;;4966449;28;20042;-79
2022/11/13 10:27:39;;;;;;;6.57;5.38;;;20.60;99.90;;;;;;4982736;28;20039;-79
2022/11/13 10:30:13;;;;;;;7.60;5.97;;;20.80;99.90;;;;;;4987367;28;20046;-79
2022/11/13 10:32:39;;;;;;;6.45;5.80;;;21.10;99.90;;;;;;4968876;28;20042;-79
2022/11/13 10:35:04;;;;;;;8.18;6.57;;;21.30;99.90;;;;;;4971141;28;20050;-79
2022/11/13 10:37:56;;;;;;;7.38;6.65;;;20.60;99.90;;;;;;4989227;28;20077;-79
2022/11/13 10:40:27;;;;;;;8.25;6.90;;;20.00;99.90;;;;;;4985267;28;20769;-79
2022/11/13 10:43:02;;;;;;;6.97;6.25;;;19.50;99.90;;;;;;4953325;28;20784;-79
2022/11/13 10:45:28;;;;;;;7.65;6.90;;;19.70;99.90;;;;;;4991635;28;20101;-79
2022/11/13 10:47:54;;;;;;;7.53;6.78;;;20.00;99.90;;;;;;4968531;28;20034;-79
2022/11/13 10:50:28;;;;;;;8.90;6.93;;;20.00;99.90;;;;;;4966083;28;20042;-79
2022/11/13 10:52:56;;;;;;;8.70;7.03;;;19.60;99.90;;;;;;4970948;28;20380;-79
2022/11/13 10:55:37;;;;;;;8.18;6.78;;;19.30;99.90;;;;;;4966222;28;20418;-79
2022/11/13 10:58:17;;;;;;;8.02;7.03;;;18.60;99.90;;;;;;4991744;28;20046;-79
2022/11/13 11:00:47;;;;;;;9.27;7.20;;;18.20;99.90;;;;;;4987193;28;20471;-79
2022/11/13 11:03:22;;;;;;;7.63;6.85;;;18.60;99.90;;;;;;4970156;28;20100;-79
2022/11/13 11:06:01;;;;;;;9.20;7.32;;;18.50;99.90;;;;;;4973378;28;20125;-79
2022/11/13 11:08:33;;;;;;;7.85;7.05;;;18.30;99.90;;;;;;4968021;28;20042;-78
2022/11/13 11:13:48;;;;;;;8.20;6.97;;;18.80;99.90;;;;;;4944018;28;20038;-78
2022/11/13 11:16:20;;;;;;;8.02;5.95;;;19.00;99.90;;;;;;4991139;28;20506;-78
2022/11/13 11:19:03;;;;;;;7.72;6.93;;;19.00;99.90;;;;;;4967829;28;20046;-78
2022/11/13 11:21:35;;;;;;;7.30;6.60;;;18.90;99.90;;;;;;4981826;28;20038;-78
2022/11/13 11:24:39;;;;;;;7.80;7.03;;;19.10;99.90;;;;;;4983650;28;20046;-77
2022/11/13 11:27:17;;;;;;;8.10;6.57;;;19.70;99.90;;;;;;4924400;28;20618;-78
2022/11/13 11:30:17;;;;;;;7.40;6.43;;;19.80;99.90;;;;;;4975743;28;20046;-78
2022/11/13 11:32:49;;;;;;;9.90;6.88;;;19.70;99.90;;;;;;4982233;28;20137;-78
2022/11/13 11:35:23;;;;;;;8.05;6.38;;;19.70;99.90;;;;;;4983541;28;20050;-78
2022/11/13 11:38:02;;;;;;;7.45;6.28;;;19.90;99.90;;;;;;4981339;28;20450;-78
2022/11/13 11:40:39;;;;;;;7.88;6.38;;;19.70;99.90;;;;;;4964644;28;20043;-75
2022/11/13 11:43:28;;;;;;;6.78;6.07;;;19.70;99.90;;;;;;4979961;28;20502;-78
2022/11/13 11:45:53;;;;;;;6.60;5.90;;;19.80;99.90;;;;;;4988264;28;20097;-78
2022/11/13 11:48:24;;;;;;;8.68;6.03;;;20.40;99.90;;;;;;4990623;28;20034;-78
2022/11/13 11:51:12;;;;;;;6.55;5.90;;;20.80;99.90;;;;;;4981324;28;20510;-78
2022/11/13 11:53:52;;;;;;;6.85;6.05;;;21.30;99.90;;;;;;4988655;28;20054;-78
2022/11/13 11:56:34;;;;;;;6.72;5.85;;;21.40;99.90;;;;;;4976972;28;20047;-78
2022/11/13 11:58:59;;;;;;;6.03;5.43;;;21.80;99.90;;;;;;4982793;28;20530;-78
2022/11/13 12:01:42;;;;;;;;;;;22.00;99.90;;;;;;4964700;28;20070;-77
2022/11/13 12:04:32;;;;;;;7.68;5.80;;;21.50;99.90;;;;;;4986779;28;19928;-77
2022/11/13 12:07:19;;;;;;;6.20;5.60;;;21.90;99.90;;;;;;4989466;28;20197;-77
2022/11/13 12:10:23;;;;;;;5.80;5.25;;;22.00;99.90;;;;;;4964146;28;20039;-77
2022/11/13 12:12:57;;;;;;;6.88;5.30;;;22.60;99.50;;;;;;4975200;28;20055;-77
2022/11/13 12:15:37;;;;;;;6.13;5.25;;;22.70;99.20;;;;;;4978158;28;20451;-77
2022/11/13 12:18:14;;;;;;;7.10;5.82;;;22.90;99.10;;;;;;4981368;28;20117;-77
2022/11/13 12:20:48;;;;;;;7.00;5.35;;;23.10;98.80;;;;;;4983546;28;20046;-77
2022/11/13 12:23:24;;;;;;;6.40;5.25;;;23.50;98.20;;;;;;4977813;28;20089;-77
2022/11/13 12:26:03;;;;;;;5.85;5.18;;;23.40;98.50;;;;;;4983144;28;20079;-77
2022/11/13 12:29:09;;;;;;;5.75;5.15;;;23.30;98.10;;;;;;4981804;28;20514;-78
2022/11/13 12:31:53;;;;;;;5.88;5.30;;;23.00;98.60;;;;;;4980489;28;20216;-78
2022/11/13 12:34:35;;;;;;;7.10;6.05;;;22.40;99.10;;;;;;4981262;28;20035;-77
2022/11/13 12:37:08;;;;;;;6.10;5.50;;;22.50;99.50;;;;;;4981541;28;20042;-77
2022/11/13 12:39:48;;;;;;;5.97;5.00;;;22.50;98.80;;;;;;4961785;28;20117;-77
2022/11/13 12:42:25;;;;;;;6.00;5.30;;;21.70;99.30;;;;;;4973691;28;20538;-77
2022/11/13 12:45:12;;;;;;;6.88;5.13;;;21.10;99.90;;;;;;4985402;28;20121;-76
2022/11/13 12:47:38;;;;;;;;;;;20.30;99.70;;;;;;4980677;28;20038;-76
2022/11/13 12:50:19;;;;;;;6.13;5.50;;;19.60;99.90;;;;;;4985533;28;19928;-78
2022/11/13 12:53:00;;;;;;;7.32;5.70;;;18.90;99.90;;;;;;4978458;28;20074;-80
2022/11/13 12:55:31;;;;;;;7.68;6.00;;;18.40;99.90;;;;;;4963535;28;20050;-79
2022/11/13 12:58:22;;;;;;;7.70;6.75;;;18.10;99.90;;;;;;4967028;28;20038;-76
2022/11/13 13:00:53;;;;;;;8.32;6.63;;;17.70;99.90;;;;;;4977369;28;20046;-77
2022/11/13 13:03:36;;;;;;;6.70;6.10;;;17.50;99.90;;;;;;4987898;28;20035;-77